sensor_id;sensor_type;location;lat;lon;timestamp;P1;durP1;ratioP1;P2;durP2;ratioP2
21804;SDS011;11064;47.102;15.452;2023-09-12T04:01:17;25.60;;;21.90;;
21804;SDS011;11064;47.102;15.452;2023-09-12T04:03:43;25.30;;;21.08;;
21804;SDS011;11064;47.102;15.452;2023-09-12T04:06:12;27.85;;;21.90;;
21804;SDS011;11064;47.102;15.452;2023-09-12T04:08:38;24.52;;;21.10;;
21804;SDS011;11064;47.102;15.452;2023-09-12T04:11:04;23.95;;;20.92;;
21804;SDS011;11064;47.102;15.452;2023-09-12T04:13:30;24.67;;;20.25;;
21804;SDS011;11064;47.102;15.452;2023-09-12T04:15:55;25.88;;;20.75;;
21804;SDS011;11064;47.102;15.452;2023-09-12T04:18:21;22.80;;;19.85;;
21804;SDS011;11064;47.102;15.452;2023-09-12T04:20:47;25.33;;;20.10;;
21804;SDS011;11064;47.102;15.452;2023-09-12T04:23:13;26.67;;;20.35;;
21804;SDS011;11064;47.102;15.452;2023-09-12T04:25:41;23.17;;;19.00;;
21804;SDS011;11064;47.102;15.452;2023-09-12T04:28:11;24.08;;;19.67;;
21804;SDS011;11064;47.102;15.452;2023-09-12T04:30:37;26.70;;;20.90;;
21804;SDS011;11064;47.102;15.452;2023-09-12T04:33:05;25.17;;;20.20;;
21804;SDS011;11064;47.102;15.452;2023-09-12T04:35:34;26.75;;;20.38;;
21804;SDS011;11064;47.102;15.452;2023-09-12T04:38:00;24.70;;;19.83;;
21804;SDS011;11064;47.102;15.452;2023-09-12T04:40:26;22.15;;;19.15;;
21804;SDS011;11064;47.102;15.452;2023-09-12T04:42:52;25.92;;;20.42;;
21804;SDS011;11064;47.102;15.452;2023-09-12T04:45:19;22.63;;;19.15;;
21804;SDS011;11064;47.102;15.452;2023-09-12T04:47:44;23.20;;;18.75;;
21804;SDS011;11064;47.102;15.452;2023-09-12T04:50:10;23.10;;;19.17;;
21804;SDS011;11064;47.102;15.452;2023-09-12T04:52:37;21.75;;;18.55;;
21804;SDS011;11064;47.102;15.452;2023-09-12T04:55:03;19.63;;;17.33;;
21804;SDS011;11064;47.102;15.452;2023-09-12T04:57:29;23.27;;;17.33;;
21804;SDS011;11064;47.102;15.452;2023-09-12T04:59:56;18.60;;;16.60;;
21804;SDS011;11064;47.102;15.452;2023-09-12T05:02:24;20.98;;;17.23;;
21804;SDS011;11064;47.102;15.452;2023-09-12T05:04:51;22.50;;;16.88;;
21804;SDS011;11064;47.102;15.452;2023-09-12T05:07:17;21.70;;;17.25;;
21804;SDS011;11064;47.102;15.452;2023-09-12T05:09:43;22.50;;;18.27;;
21804;SDS011;11064;47.102;15.452;2023-09-12T05:12:09;21.23;;;16.92;;
21804;SDS011;11064;47.102;15.452;2023-09-12T05:14:35;21.48;;;16.85;;
21804;SDS011;11064;47.102;15.452;2023-09-12T05:17:00;22.45;;;16.63;;
21804;SDS011;11064;47.102;15.452;2023-09-12T05:19:27;20.10;;;16.63;;
21804;SDS011;11064;47.102;15.452;2023-09-12T05:21:55;20.50;;;16.38;;
21804;SDS011;11064;47.102;15.452;2023-09-12T05:24:21;20.13;;;16.10;;
21804;SDS011;11064;47.102;15.452;2023-09-12T05:26:56;21.50;;;16.55;;
21804;SDS011;11064;47.102;15.452;2023-09-12T05:29:22;19.73;;;16.27;;
21804;SDS011;11064;47.102;15.452;2023-09-12T05:31:48;22.50;;;16.35;;
21804;SDS011;11064;47.102;15.452;2023-09-12T05:34:15;23.80;;;16.67;;
21804;SDS011;11064;47.102;15.452;2023-09-12T05:36:41;18.83;;;15.57;;
21804;SDS011;11064;47.102;15.452;2023-09-12T05:39:07;20.73;;;15.70;;
21804;SDS011;11064;47.102;15.452;2023-09-12T05:41:33;20.50;;;15.40;;
21804;SDS011;11064;47.102;15.452;2023-09-12T05:43:58;17.05;;;14.50;;
21804;SDS011;11064;47.102;15.452;2023-09-12T05:46:25;19.88;;;16.00;;
21804;SDS011;11064;47.102;15.452;2023-09-12T05:48:50;20.88;;;15.73;;
21804;SDS011;11064;47.102;15.452;2023-09-12T05:51:16;18.50;;;14.77;;
21804;SDS011;11064;47.102;15.452;2023-09-12T05:53:42;19.83;;;15.40;;
21804;SDS011;11064;47.102;15.452;2023-09-12T05:56:08;25.67;;;15.20;;
21804;SDS011;11064;47.102;15.452;2023-09-12T05:58:34;19.17;;;14.85;;
21804;SDS011;11064;47.102;15.452;2023-09-12T06:01:01;19.08;;;14.75;;
21804;SDS011;11064;47.102;15.452;2023-09-12T06:03:27;18.30;;;14.60;;
21804;SDS011;11064;47.102;15.452;2023-09-12T06:05:54;22.20;;;15.48;;
21804;SDS011;11064;47.102;15.452;2023-09-12T06:08:19;22.63;;;14.27;;
21804;SDS011;11064;47.102;15.452;2023-09-12T06:10:46;17.15;;;14.40;;
21804;SDS011;11064;47.102;15.452;2023-09-12T06:13:13;17.98;;;14.05;;
21804;SDS011;11064;47.102;15.452;2023-09-12T06:15:40;18.10;;;13.80;;
21804;SDS011;11064;47.102;15.452;2023-09-12T06:18:06;25.65;;;14.60;;
21804;SDS011;11064;47.102;15.452;2023-09-12T06:20:32;19.98;;;13.90;;
21804;SDS011;11064;47.102;15.452;2023-09-12T06:22:57;21.23;;;14.27;;
21804;SDS011;11064;47.102;15.452;2023-09-12T06:25:24;18.73;;;14.07;;
21804;SDS011;11064;47.102;15.452;2023-09-12T06:27:50;18.05;;;13.27;;
21804;SDS011;11064;47.102;15.452;2023-09-12T06:30:16;19.17;;;13.30;;
21804;SDS011;11064;47.102;15.452;2023-09-12T06:32:42;19.63;;;13.27;;
21804;SDS011;11064;47.102;15.452;2023-09-12T06:35:08;21.33;;;13.48;;
21804;SDS011;11064;47.102;15.452;2023-09-12T06:37:35;19.20;;;13.27;;
21804;SDS011;11064;47.102;15.452;2023-09-12T06:40:04;18.50;;;12.93;;
21804;SDS011;11064;47.102;15.452;2023-09-12T06:42:31;20.50;;;13.18;;
21804;SDS011;11064;47.102;15.452;2023-09-12T06:44:57;16.95;;;13.23;;
21804;SDS011;11064;47.102;15.452;2023-09-12T06:47:23;16.63;;;12.85;;
21804;SDS011;11064;47.102;15.452;2023-09-12T06:49:48;16.48;;;12.93;;
21804;SDS011;11064;47.102;15.452;2023-09-12T06:52:14;19.77;;;13.82;;
21804;SDS011;11064;47.102;15.452;2023-09-12T06:54:40;19.55;;;13.02;;
21804;SDS011;11064;47.102;15.452;2023-09-12T06:57:07;18.23;;;12.60;;
21804;SDS011;11064;47.102;15.452;2023-09-12T06:59:32;20.13;;;13.50;;
21804;SDS011;11064;47.102;15.452;2023-09-12T07:01:58;18.02;;;13.10;;
21804;SDS011;11064;47.102;15.452;2023-09-12T07:04:24;18.58;;;12.43;;
21804;SDS011;11064;47.102;15.452;2023-09-12T07:06:50;16.02;;;12.63;;
21804;SDS011;11064;47.102;15.452;2023-09-12T07:09:16;17.20;;;12.02;;
21804;SDS011;11064;47.102;15.452;2023-09-12T07:11:44;15.10;;;12.20;;
21804;SDS011;11064;47.102;15.452;2023-09-12T07:14:10;17.55;;;12.15;;
21804;SDS011;11064;47.102;15.452;2023-09-12T07:16:36;18.10;;;12.70;;
21804;SDS011;11064;47.102;15.452;2023-09-12T07:19:02;18.83;;;12.60;;
21804;SDS011;11064;47.102;15.452;2023-09-12T07:21:29;16.80;;;11.95;;
21804;SDS011;11064;47.102;15.452;2023-09-12T07:23:56;18.08;;;12.20;;
21804;SDS011;11064;47.102;15.452;2023-09-12T07:26:22;16.52;;;12.77;;
21804;SDS011;11064;47.102;15.452;2023-09-12T07:28:48;14.50;;;11.70;;
21804;SDS011;11064;47.102;15.452;2023-09-12T07:31:14;16.40;;;12.00;;
21804;SDS011;11064;47.102;15.452;2023-09-12T07:33:40;16.55;;;11.85;;
21804;SDS011;11064;47.102;15.452;2023-09-12T07:36:06;17.70;;;12.35;;
21804;SDS011;11064;47.102;15.452;2023-09-12T07:38:32;20.63;;;11.95;;
21804;SDS011;11064;47.102;15.452;2023-09-12T07:41:00;15.05;;;11.40;;
21804;SDS011;11064;47.102;15.452;2023-09-12T07:43:28;17.55;;;10.95;;
21804;SDS011;11064;47.102;15.452;2023-09-12T07:45:57;16.27;;;11.68;;
21804;SDS011;11064;47.102;15.452;2023-09-12T07:48:23;15.23;;;11.18;;
21804;SDS011;11064;47.102;15.452;2023-09-12T07:50:50;19.08;;;10.90;;
21804;SDS011;11064;47.102;15.452;2023-09-12T07:53:16;15.80;;;11.05;;
21804;SDS011;11064;47.102;15.452;2023-09-12T07:55:42;15.80;;;11.48;;
21804;SDS011;11064;47.102;15.452;2023-09-12T07:58:15;12.30;;;11.00;;
21804;SDS011;11064;47.102;15.452;2023-09-12T08:00:45;15.68;;;10.68;;
21804;SDS011;11064;47.102;15.452;2023-09-12T08:03:11;13.00;;;10.93;;
21804;SDS011;11064;47.102;15.452;2023-09-12T08:05:37;17.90;;;10.60;;
21804;SDS011;11064;47.102;15.452;2023-09-12T08:08:04;14.70;;;10.60;;
21804;SDS011;11064;47.102;15.452;2023-09-12T08:10:29;13.95;;;11.52;;
21804;SDS011;11064;47.102;15.452;2023-09-12T08:12:55;13.27;;;10.90;;
21804;SDS011;11064;47.102;15.452;2023-09-12T08:15:21;17.80;;;10.40;;
21804;SDS011;11064;47.102;15.452;2023-09-12T08:17:47;13.77;;;10.55;;
21804;SDS011;11064;47.102;15.452;2023-09-12T08:20:17;12.60;;;10.38;;
21804;SDS011;11064;47.102;15.452;2023-09-12T08:22:43;12.52;;;10.73;;
21804;SDS011;11064;47.102;15.452;2023-09-12T08:25:09;12.70;;;10.32;;
21804;SDS011;11064;47.102;15.452;2023-09-12T08:27:37;14.38;;;10.50;;
21804;SDS011;11064;47.102;15.452;2023-09-12T08:30:03;15.93;;;11.13;;
21804;SDS011;11064;47.102;15.452;2023-09-12T08:32:29;14.65;;;11.15;;
21804;SDS011;11064;47.102;15.452;2023-09-12T08:34:55;16.33;;;11.40;;
21804;SDS011;11064;47.102;15.452;2023-09-12T08:37:21;14.80;;;10.57;;
21804;SDS011;11064;47.102;15.452;2023-09-12T08:39:47;13.80;;;10.73;;
21804;SDS011;11064;47.102;15.452;2023-09-12T08:42:13;11.93;;;10.63;;
21804;SDS011;11064;47.102;15.452;2023-09-12T08:44:41;14.80;;;11.02;;
21804;SDS011;11064;47.102;15.452;2023-09-12T08:47:11;12.23;;;10.93;;
21804;SDS011;11064;47.102;15.452;2023-09-12T08:49:37;13.37;;;10.77;;
21804;SDS011;11064;47.102;15.452;2023-09-12T08:52:04;14.68;;;11.60;;
21804;SDS011;11064;47.102;15.452;2023-09-12T08:54:33;19.48;;;11.02;;
21804;SDS011;11064;47.102;15.452;2023-09-12T08:57:01;16.75;;;11.25;;
21804;SDS011;11064;47.102;15.452;2023-09-12T08:59:29;14.52;;;10.82;;
21804;SDS011;11064;47.102;15.452;2023-09-12T09:01:57;18.02;;;11.82;;
21804;SDS011;11064;47.102;15.452;2023-09-12T09:04:23;14.15;;;10.65;;
21804;SDS011;11064;47.102;15.452;2023-09-12T09:06:53;13.75;;;11.25;;
21804;SDS011;11064;47.102;15.452;2023-09-12T09:09:22;15.75;;;11.02;;
21804;SDS011;11064;47.102;15.452;2023-09-12T09:11:49;16.42;;;11.50;;
21804;SDS011;11064;47.102;15.452;2023-09-12T09:14:15;14.80;;;11.38;;
21804;SDS011;11064;47.102;15.452;2023-09-12T09:16:41;15.38;;;11.48;;
21804;SDS011;11064;47.102;15.452;2023-09-12T09:19:07;15.77;;;11.57;;
21804;SDS011;11064;47.102;15.452;2023-09-12T09:21:36;13.60;;;11.07;;
21804;SDS011;11064;47.102;15.452;2023-09-12T09:24:09;15.20;;;11.43;;
21804;SDS011;11064;47.102;15.452;2023-09-12T09:26:43;13.65;;;10.98;;
21804;SDS011;11064;47.102;15.452;2023-09-12T09:29:16;12.60;;;10.23;;
21804;SDS011;11064;47.102;15.452;2023-09-12T09:31:44;11.90;;;10.25;;
21804;SDS011;11064;47.102;15.452;2023-09-12T09:34:13;13.27;;;10.65;;
21804;SDS011;11064;47.102;15.452;2023-09-12T09:36:43;16.15;;;10.38;;
21804;SDS011;11064;47.102;15.452;2023-09-12T09:39:12;13.15;;;10.57;;
21804;SDS011;11064;47.102;15.452;2023-09-12T09:41:39;13.80;;;9.82;;
21804;SDS011;11064;47.102;15.452;2023-09-12T09:44:06;15.88;;;11.00;;
21804;SDS011;11064;47.102;15.452;2023-09-12T09:46:34;12.98;;;10.75;;
21804;SDS011;11064;47.102;15.452;2023-09-12T09:49:02;15.68;;;10.48;;
21804;SDS011;11064;47.102;15.452;2023-09-12T09:51:29;14.18;;;11.32;;
21804;SDS011;11064;47.102;15.452;2023-09-12T09:53:58;12.88;;;9.95;;
21804;SDS011;11064;47.102;15.452;2023-09-12T09:56:25;14.52;;;10.82;;
21804;SDS011;11064;47.102;15.452;2023-09-12T09:58:52;18.83;;;10.90;;
21804;SDS011;11064;47.102;15.452;2023-09-12T10:01:23;12.27;;;10.50;;
21804;SDS011;11064;47.102;15.452;2023-09-12T10:03:57;13.27;;;10.32;;
21804;SDS011;11064;47.102;15.452;2023-09-12T10:06:25;11.63;;;9.95;;
21804;SDS011;11064;47.102;15.452;2023-09-12T10:08:53;10.50;;;9.27;;
21804;SDS011;11064;47.102;15.452;2023-09-12T10:11:23;11.32;;;9.95;;
21804;SDS011;11064;47.102;15.452;2023-09-12T10:13:54;17.05;;;10.68;;
21804;SDS011;11064;47.102;15.452;2023-09-12T10:16:25;12.15;;;10.45;;
21804;SDS011;11064;47.102;15.452;2023-09-12T10:18:59;16.00;;;10.45;;
21804;SDS011;11064;47.102;15.452;2023-09-12T10:21:32;11.35;;;10.05;;
21804;SDS011;11064;47.102;15.452;2023-09-12T10:24:00;12.90;;;9.95;;
21804;SDS011;11064;47.102;15.452;2023-09-12T10:26:28;14.93;;;10.10;;
21804;SDS011;11064;47.102;15.452;2023-09-12T10:28:57;14.40;;;10.25;;
21804;SDS011;11064;47.102;15.452;2023-09-12T10:31:24;15.38;;;10.80;;
21804;SDS011;11064;47.102;15.452;2023-09-12T10:33:52;17.33;;;11.30;;
21804;SDS011;11064;47.102;15.452;2023-09-12T10:36:20;16.00;;;11.50;;
21804;SDS011;11064;47.102;15.452;2023-09-12T10:38:48;13.32;;;11.00;;
21804;SDS011;11064;47.102;15.452;2023-09-12T10:41:14;15.27;;;10.88;;
21804;SDS011;11064;47.102;15.452;2023-09-12T10:43:42;16.40;;;11.35;;
21804;SDS011;11064;47.102;15.452;2023-09-12T10:46:12;14.32;;;11.07;;
21804;SDS011;11064;47.102;15.452;2023-09-12T10:48:38;14.90;;;10.80;;
21804;SDS011;11064;47.102;15.452;2023-09-12T10:51:06;12.23;;;10.93;;
21804;SDS011;11064;47.102;15.452;2023-09-12T10:53:33;12.15;;;10.52;;
21804;SDS011;11064;47.102;15.452;2023-09-12T10:56:01;13.95;;;10.95;;
21804;SDS011;11064;47.102;15.452;2023-09-12T10:58:33;12.65;;;11.13;;
21804;SDS011;11064;47.102;15.452;2023-09-12T11:01:22;12.88;;;10.95;;
21804;SDS011;11064;47.102;15.452;2023-09-12T11:03:51;13.82;;;10.82;;
21804;SDS011;11064;47.102;15.452;2023-09-12T11:06:21;12.85;;;10.95;;
21804;SDS011;11064;47.102;15.452;2023-09-12T11:11:43;12.18;;;10.80;;
21804;SDS011;11064;47.102;15.452;2023-09-12T11:14:12;12.93;;;10.88;;
21804;SDS011;11064;47.102;15.452;2023-09-12T11:16:38;13.90;;;11.10;;
21804;SDS011;11064;47.102;15.452;2023-09-12T11:21:51;13.02;;;11.30;;
21804;SDS011;11064;47.102;15.452;2023-09-12T11:26:54;13.07;;;10.88;;
21804;SDS011;11064;47.102;15.452;2023-09-12T11:29:43;12.60;;;10.73;;
21804;SDS011;11064;47.102;15.452;2023-09-12T11:32:08;11.45;;;10.32;;
21804;SDS011;11064;47.102;15.452;2023-09-12T11:34:40;14.95;;;10.65;;
21804;SDS011;11064;47.102;15.452;2023-09-12T11:37:07;15.43;;;10.90;;
21804;SDS011;11064;47.102;15.452;2023-09-12T11:39:33;12.63;;;10.82;;
21804;SDS011;11064;47.102;15.452;2023-09-12T11:42:01;12.32;;;11.05;;
21804;SDS011;11064;47.102;15.452;2023-09-12T11:44:29;11.98;;;10.77;;
21804;SDS011;11064;47.102;15.452;2023-09-12T11:46:56;13.13;;;10.48;;
21804;SDS011;11064;47.102;15.452;2023-09-12T11:49:38;13.35;;;10.50;;
21804;SDS011;11064;47.102;15.452;2023-09-12T11:52:14;13.05;;;10.38;;
21804;SDS011;11064;47.102;15.452;2023-09-12T11:54:44;12.35;;;9.80;;
21804;SDS011;11064;47.102;15.452;2023-09-12T11:57:12;13.25;;;9.80;;
21804;SDS011;11064;47.102;15.452;2023-09-12T11:59:40;11.15;;;10.05;;
21804;SDS011;11064;47.102;15.452;2023-09-12T12:02:09;12.80;;;9.63;;
21804;SDS011;11064;47.102;15.452;2023-09-12T12:04:36;16.42;;;10.23;;
21804;SDS011;11064;47.102;15.452;2023-09-12T12:07:02;12.85;;;9.98;;
21804;SDS011;11064;47.102;15.452;2023-09-12T12:09:32;10.52;;;9.52;;
21804;SDS011;11064;47.102;15.452;2023-09-12T12:12:03;11.32;;;9.40;;
21804;SDS011;11064;47.102;15.452;2023-09-12T12:14:33;12.68;;;9.20;;
21804;SDS011;11064;47.102;15.452;2023-09-12T12:17:08;10.52;;;9.43;;
21804;SDS011;11064;47.102;15.452;2023-09-12T12:19:35;11.70;;;9.38;;
21804;SDS011;11064;47.102;15.452;2023-09-12T12:22:03;14.15;;;9.00;;
21804;SDS011;11064;47.102;15.452;2023-09-12T12:24:39;10.48;;;9.35;;
21804;SDS011;11064;47.102;15.452;2023-09-12T12:27:07;10.68;;;9.55;;
21804;SDS011;11064;47.102;15.452;2023-09-12T12:29:34;12.98;;;9.48;;
21804;SDS011;11064;47.102;15.452;2023-09-12T12:32:01;11.75;;;9.68;;
21804;SDS011;11064;47.102;15.452;2023-09-12T12:34:30;10.55;;;9.55;;
21804;SDS011;11064;47.102;15.452;2023-09-12T12:36:56;11.45;;;10.23;;
21804;SDS011;11064;47.102;15.452;2023-09-12T12:39:22;11.63;;;9.73;;
21804;SDS011;11064;47.102;15.452;2023-09-12T12:41:51;11.30;;;9.73;;
21804;SDS011;11064;47.102;15.452;2023-09-12T12:44:18;11.90;;;9.95;;
21804;SDS011;11064;47.102;15.452;2023-09-12T12:46:48;11.20;;;10.10;;
21804;SDS011;11064;47.102;15.452;2023-09-12T12:49:21;11.70;;;10.38;;
21804;SDS011;11064;47.102;15.452;2023-09-12T12:51:48;10.88;;;9.77;;
21804;SDS011;11064;47.102;15.452;2023-09-12T12:54:14;10.77;;;9.25;;
21804;SDS011;11064;47.102;15.452;2023-09-12T12:56:41;11.40;;;9.90;;
21804;SDS011;11064;47.102;15.452;2023-09-12T12:59:10;10.57;;;9.50;;
21804;SDS011;11064;47.102;15.452;2023-09-12T13:01:36;12.93;;;9.77;;
21804;SDS011;11064;47.102;15.452;2023-09-12T13:04:09;10.95;;;9.95;;
21804;SDS011;11064;47.102;15.452;2023-09-12T13:06:35;10.75;;;9.65;;
21804;SDS011;11064;47.102;15.452;2023-09-12T13:09:02;10.85;;;9.48;;
21804;SDS011;11064;47.102;15.452;2023-09-12T13:11:31;11.73;;;9.65;;
21804;SDS011;11064;47.102;15.452;2023-09-12T13:14:00;11.82;;;9.07;;
21804;SDS011;11064;47.102;15.452;2023-09-12T13:16:28;10.10;;;9.10;;
21804;SDS011;11064;47.102;15.452;2023-09-12T13:18:54;11.27;;;9.30;;
21804;SDS011;11064;47.102;15.452;2023-09-12T13:21:20;11.02;;;9.30;;
21804;SDS011;11064;47.102;15.452;2023-09-12T13:23:46;11.95;;;9.02;;
21804;SDS011;11064;47.102;15.452;2023-09-12T13:26:13;11.02;;;9.43;;
21804;SDS011;11064;47.102;15.452;2023-09-12T13:28:39;12.35;;;9.43;;
21804;SDS011;11064;47.102;15.452;2023-09-12T13:31:06;11.57;;;9.48;;
21804;SDS011;11064;47.102;15.452;2023-09-12T13:33:32;10.60;;;9.50;;
21804;SDS011;11064;47.102;15.452;2023-09-12T13:35:58;13.65;;;9.65;;
21804;SDS011;11064;47.102;15.452;2023-09-12T13:38:24;12.35;;;9.43;;
21804;SDS011;11064;47.102;15.452;2023-09-12T13:40:50;10.35;;;9.35;;
21804;SDS011;11064;47.102;15.452;2023-09-12T13:43:16;12.48;;;9.80;;
21804;SDS011;11064;47.102;15.452;2023-09-12T13:45:42;10.80;;;9.70;;
21804;SDS011;11064;47.102;15.452;2023-09-12T13:48:08;10.23;;;9.23;;
21804;SDS011;11064;47.102;15.452;2023-09-12T13:50:34;10.02;;;9.02;;
21804;SDS011;11064;47.102;15.452;2023-09-12T13:53:00;12.80;;;9.38;;
21804;SDS011;11064;47.102;15.452;2023-09-12T13:55:34;12.40;;;9.50;;
21804;SDS011;11064;47.102;15.452;2023-09-12T13:58:04;11.13;;;9.93;;
21804;SDS011;11064;47.102;15.452;2023-09-12T14:00:32;10.95;;;9.85;;
21804;SDS011;11064;47.102;15.452;2023-09-12T14:02:59;15.30;;;9.85;;
21804;SDS011;11064;47.102;15.452;2023-09-12T14:05:24;11.60;;;10.23;;
21804;SDS011;11064;47.102;15.452;2023-09-12T14:07:51;12.50;;;10.80;;
21804;SDS011;11064;47.102;15.452;2023-09-12T14:10:17;11.13;;;9.88;;
21804;SDS011;11064;47.102;15.452;2023-09-12T14:12:42;12.02;;;10.73;;
21804;SDS011;11064;47.102;15.452;2023-09-12T14:15:09;11.07;;;9.70;;
21804;SDS011;11064;47.102;15.452;2023-09-12T14:17:37;11.25;;;10.10;;
21804;SDS011;11064;47.102;15.452;2023-09-12T14:20:03;11.43;;;10.13;;
21804;SDS011;11064;47.102;15.452;2023-09-12T14:22:30;11.82;;;9.00;;
21804;SDS011;11064;47.102;15.452;2023-09-12T14:24:56;11.32;;;10.00;;
21804;SDS011;11064;47.102;15.452;2023-09-12T14:27:22;12.38;;;9.68;;
21804;SDS011;11064;47.102;15.452;2023-09-12T14:29:49;10.50;;;9.32;;
21804;SDS011;11064;47.102;15.452;2023-09-12T14:32:16;11.68;;;9.63;;
21804;SDS011;11064;47.102;15.452;2023-09-12T14:34:42;14.55;;;9.75;;
21804;SDS011;11064;47.102;15.452;2023-09-12T14:37:11;10.57;;;9.35;;
21804;SDS011;11064;47.102;15.452;2023-09-12T14:39:37;12.15;;;9.50;;
21804;SDS011;11064;47.102;15.452;2023-09-12T14:42:04;10.73;;;9.23;;
21804;SDS011;11064;47.102;15.452;2023-09-12T14:47:02;11.98;;;9.90;;
21804;SDS011;11064;47.102;15.452;2023-09-12T14:49:28;12.02;;;9.93;;
21804;SDS011;11064;47.102;15.452;2023-09-12T14:51:54;13.90;;;9.95;;
21804;SDS011;11064;47.102;15.452;2023-09-12T14:54:20;13.85;;;9.18;;
21804;SDS011;11064;47.102;15.452;2023-09-12T14:56:48;12.48;;;9.43;;
21804;SDS011;11064;47.102;15.452;2023-09-12T14:59:16;12.90;;;10.35;;
21804;SDS011;11064;47.102;15.452;2023-09-12T15:01:42;10.65;;;9.55;;
21804;SDS011;11064;47.102;15.452;2023-09-12T15:04:09;10.52;;;9.43;;
21804;SDS011;11064;47.102;15.452;2023-09-12T15:06:36;11.80;;;10.57;;
21804;SDS011;11064;47.102;15.452;2023-09-12T15:09:02;11.32;;;10.13;;
21804;SDS011;11064;47.102;15.452;2023-09-12T15:11:29;12.00;;;9.90;;
21804;SDS011;11064;47.102;15.452;2023-09-12T15:13:57;15.68;;;10.30;;
21804;SDS011;11064;47.102;15.452;2023-09-12T15:16:24;14.20;;;10.23;;
21804;SDS011;11064;47.102;15.452;2023-09-12T15:18:51;11.57;;;9.93;;
21804;SDS011;11064;47.102;15.452;2023-09-12T15:21:17;11.88;;;10.40;;
21804;SDS011;11064;47.102;15.452;2023-09-12T15:23:43;13.00;;;10.30;;
21804;SDS011;11064;47.102;15.452;2023-09-12T15:26:09;12.20;;;10.50;;
21804;SDS011;11064;47.102;15.452;2023-09-12T15:28:35;13.43;;;10.40;;
21804;SDS011;11064;47.102;15.452;2023-09-12T15:31:02;12.43;;;10.63;;
21804;SDS011;11064;47.102;15.452;2023-09-12T15:33:29;16.50;;;10.43;;
21804;SDS011;11064;47.102;15.452;2023-09-12T15:35:55;15.35;;;10.45;;
21804;SDS011;11064;47.102;15.452;2023-09-12T15:38:21;13.02;;;9.80;;
21804;SDS011;11064;47.102;15.452;2023-09-12T15:40:47;12.82;;;9.95;;
21804;SDS011;11064;47.102;15.452;2023-09-12T15:43:14;16.38;;;10.50;;
21804;SDS011;11064;47.102;15.452;2023-09-12T15:45:40;13.68;;;10.70;;
21804;SDS011;11064;47.102;15.452;2023-09-12T15:48:06;15.02;;;10.48;;
21804;SDS011;11064;47.102;15.452;2023-09-12T15:50:32;15.30;;;11.02;;
21804;SDS011;11064;47.102;15.452;2023-09-12T15:52:58;13.27;;;10.20;;
21804;SDS011;11064;47.102;15.452;2023-09-12T15:55:24;15.10;;;10.20;;
21804;SDS011;11064;47.102;15.452;2023-09-12T15:57:50;12.27;;;10.50;;
21804;SDS011;11064;47.102;15.452;2023-09-12T16:00:16;12.82;;;10.18;;
21804;SDS011;11064;47.102;15.452;2023-09-12T16:02:42;12.23;;;10.48;;
21804;SDS011;11064;47.102;15.452;2023-09-12T16:05:09;11.57;;;10.38;;
21804;SDS011;11064;47.102;15.452;2023-09-12T16:07:36;12.65;;;10.13;;
21804;SDS011;11064;47.102;15.452;2023-09-12T16:10:02;15.57;;;10.90;;
21804;SDS011;11064;47.102;15.452;2023-09-12T16:12:29;13.55;;;10.05;;
21804;SDS011;11064;47.102;15.452;2023-09-12T16:14:54;15.02;;;10.68;;
21804;SDS011;11064;47.102;15.452;2023-09-12T16:17:24;12.73;;;10.23;;
21804;SDS011;11064;47.102;15.452;2023-09-12T16:19:51;11.35;;;9.98;;
21804;SDS011;11064;47.102;15.452;2023-09-12T16:22:17;13.00;;;10.88;;
21804;SDS011;11064;47.102;15.452;2023-09-12T16:24:43;15.93;;;11.32;;
21804;SDS011;11064;47.102;15.452;2023-09-12T16:27:09;14.40;;;11.48;;
21804;SDS011;11064;47.102;15.452;2023-09-12T16:29:37;14.77;;;10.85;;
21804;SDS011;11064;47.102;15.452;2023-09-12T16:32:04;14.32;;;11.15;;
21804;SDS011;11064;47.102;15.452;2023-09-12T16:34:30;15.68;;;11.32;;
21804;SDS011;11064;47.102;15.452;2023-09-12T16:36:56;12.75;;;11.30;;
21804;SDS011;11064;47.102;15.452;2023-09-12T16:39:24;15.90;;;11.13;;
21804;SDS011;11064;47.102;15.452;2023-09-12T16:41:50;14.38;;;11.95;;
21804;SDS011;11064;47.102;15.452;2023-09-12T16:44:16;14.98;;;12.30;;
21804;SDS011;11064;47.102;15.452;2023-09-12T16:46:42;18.85;;;11.73;;
21804;SDS011;11064;47.102;15.452;2023-09-12T16:49:09;15.95;;;11.75;;
21804;SDS011;11064;47.102;15.452;2023-09-12T16:51:35;14.52;;;11.48;;
21804;SDS011;11064;47.102;15.452;2023-09-12T16:54:01;13.93;;;12.25;;
21804;SDS011;11064;47.102;15.452;2023-09-12T16:56:30;14.95;;;12.23;;
21804;SDS011;11064;47.102;15.452;2023-09-12T16:58:56;15.88;;;12.07;;
21804;SDS011;11064;47.102;15.452;2023-09-12T17:01:22;14.82;;;12.25;;
21804;SDS011;11064;47.102;15.452;2023-09-12T17:03:56;14.95;;;12.35;;
21804;SDS011;11064;47.102;15.452;2023-09-12T17:06:24;16.77;;;12.95;;
21804;SDS011;11064;47.102;15.452;2023-09-12T17:08:54;13.48;;;12.10;;
21804;SDS011;11064;47.102;15.452;2023-09-12T17:11:22;14.75;;;13.18;;
21804;SDS011;11064;47.102;15.452;2023-09-12T17:13:48;19.77;;;13.32;;
21804;SDS011;11064;47.102;15.452;2023-09-12T17:16:14;15.95;;;12.73;;
21804;SDS011;11064;47.102;15.452;2023-09-12T17:18:43;15.00;;;12.82;;
21804;SDS011;11064;47.102;15.452;2023-09-12T17:21:11;15.60;;;13.90;;
21804;SDS011;11064;47.102;15.452;2023-09-12T17:23:37;16.38;;;13.75;;
21804;SDS011;11064;47.102;15.452;2023-09-12T17:26:03;15.18;;;13.57;;
21804;SDS011;11064;47.102;15.452;2023-09-12T17:28:29;19.45;;;14.20;;
21804;SDS011;11064;47.102;15.452;2023-09-12T17:30:57;16.65;;;14.32;;
21804;SDS011;11064;47.102;15.452;2023-09-12T17:33:25;16.00;;;14.30;;
21804;SDS011;11064;47.102;15.452;2023-09-12T17:35:51;18.10;;;15.10;;
21804;SDS011;11064;47.102;15.452;2023-09-12T17:38:17;18.95;;;14.90;;
21804;SDS011;11064;47.102;15.452;2023-09-12T17:40:43;22.77;;;16.10;;
21804;SDS011;11064;47.102;15.452;2023-09-12T17:43:10;19.15;;;15.52;;
21804;SDS011;11064;47.102;15.452;2023-09-12T17:45:37;17.58;;;14.95;;
21804;SDS011;11064;47.102;15.452;2023-09-12T17:48:04;20.65;;;14.68;;
21804;SDS011;11064;47.102;15.452;2023-09-12T17:50:31;17.33;;;14.57;;
21804;SDS011;11064;47.102;15.452;2023-09-12T17:52:57;18.27;;;13.90;;
21804;SDS011;11064;47.102;15.452;2023-09-12T17:55:26;17.48;;;14.30;;
21804;SDS011;11064;47.102;15.452;2023-09-12T17:57:52;26.70;;;15.35;;
21804;SDS011;11064;47.102;15.452;2023-09-12T18:00:20;17.38;;;15.15;;
21804;SDS011;11064;47.102;15.452;2023-09-12T18:02:52;16.27;;;14.65;;
21804;SDS011;11064;47.102;15.452;2023-09-12T18:05:19;16.13;;;14.43;;
21804;SDS011;11064;47.102;15.452;2023-09-12T18:07:45;15.85;;;14.25;;
21804;SDS011;11064;47.102;15.452;2023-09-12T18:10:12;19.52;;;14.90;;
21804;SDS011;11064;47.102;15.452;2023-09-12T18:12:37;17.08;;;15.27;;
21804;SDS011;11064;47.102;15.452;2023-09-12T18:15:04;20.60;;;15.52;;
21804;SDS011;11064;47.102;15.452;2023-09-12T18:17:34;21.85;;;16.48;;
21804;SDS011;11064;47.102;15.452;2023-09-12T18:20:00;21.88;;;15.82;;
21804;SDS011;11064;47.102;15.452;2023-09-12T18:22:28;17.42;;;15.43;;